Time;durP1;ratioP1;P1;durP2;ratioP2;P2;SDS_P1;SDS_P2;PMS_P1;PMS_P2;Temp;Humidity;BMP_temperature;BMP_pressure;BME280_temperature;BME280_humidity;BME280_pressure;Samples;Min_cycle;Max_cycle;Signal;HPM_P1;HPM_P2
2022/12/25 00:00:04;;;;;;;3.38;0.95;;;;;;;8.35;94.88;99147.59;5049835;28;20060;-68
2022/12/25 00:03:09;;;;;;;5.32;1.23;;;;;;;8.43;93.92;99151.53;5038561;28;20057;-67
2022/12/25 00:05:57;;;;;;;3.42;1.10;;;;;;;8.44;93.26;99156.69;5049494;28;20041;-68
2022/12/25 00:08:42;;;;;;;7.00;1.30;;;;;;;8.52;93.08;99158.88;5044454;28;20087;-66
2022/12/25 00:11:27;;;;;;;6.07;1.42;;;;;;;8.50;92.96;99137.25;5041890;28;20056;-66
2022/12/25 00:14:12;;;;;;;6.85;1.02;;;;;;;8.54;93.16;99135.28;5050522;28;20037;-66
2022/12/25 00:16:56;;;;;;;3.90;1.33;;;;;;;8.57;92.47;99146.44;5080720;28;20384;-67
2022/12/25 00:19:41;;;;;;;4.18;1.20;;;;;;;8.55;92.53;99143.06;5042835;28;20446;-67
2022/12/25 00:22:26;;;;;;;2.78;1.10;;;;;;;8.50;92.71;99135.44;5046983;28;20037;-67
2022/12/25 00:25:10;;;;;;;2.45;1.00;;;;;;;8.48;93.15;99134.72;5032914;28;20037;-68
2022/12/25 00:27:55;;;;;;;3.85;1.05;;;;;;;8.47;93.84;99134.78;5052551;28;20394;-68
2022/12/25 00:30:40;;;;;;;4.82;1.45;;;;;;;8.50;93.74;99135.44;5040269;28;20071;-68
2022/12/25 00:33:25;;;;;;;3.58;1.17;;;;;;;8.46;93.46;99146.16;5052971;28;20037;-67
2022/12/25 00:36:11;;;;;;;2.85;1.08;;;;;;;8.48;93.87;99147.78;5053210;28;20403;-67
2022/12/25 00:38:56;;;;;;;3.35;1.10;;;;;;;8.55;93.85;99148.28;5041213;28;20128;-67
2022/12/25 00:44:48;;;;;;;6.90;1.67;;;;;;;8.45;94.49;99149.69;5052721;28;20039;-67
2022/12/25 00:47:32;;;;;;;4.88;1.15;;;;;;;8.42;94.19;99152.47;5052751;28;20408;-67
2022/12/25 00:50:17;;;;;;;3.45;1.10;;;;;;;8.41;94.02;99154.22;5035860;28;20041;-68
2022/12/25 00:53:01;;;;;;;4.85;1.27;;;;;;;8.45;93.25;99162.75;5037326;28;20040;-67
2022/12/25 00:55:54;;;;;;;6.47;1.20;;;;;;;8.52;93.31;99166.69;5051076;28;20215;-67
2022/12/25 00:58:39;;;;;;;4.55;1.30;;;;;;;8.55;93.93;99170.97;5055694;28;20069;-68
2022/12/25 01:01:24;;;;;;;4.22;1.30;;;;;;;8.61;93.88;99168.88;5050932;28;20378;-67
2022/12/25 01:04:10;;;;;;;7.15;1.95;;;;;;;8.23;95.74;99184.75;5052119;28;20048;-67
2022/12/25 01:06:55;;;;;;;3.35;1.40;;;;;;;7.75;100.00;99191.47;5051184;28;20083;-68
2022/12/25 01:12:43;;;;;;;4.93;1.75;;;;;;;7.75;100.00;99183.66;5050411;28;20045;-68
2022/12/25 01:15:29;;;;;;;5.82;1.92;;;;;;;7.79;100.00;99186.09;5049728;28;20470;-68
2022/12/25 01:18:14;;;;;;;2.35;1.10;;;;;;;7.86;100.00;99193.56;5042892;28;20075;-67
2022/12/25 01:21:05;;;;;;;6.15;1.63;;;;;;;7.98;100.00;99199.91;5050708;28;20072;-67
2022/12/25 01:23:51;;;;;;;3.95;1.40;;;;;;;7.96;100.00;99207.00;5050353;28;20488;-67
2022/12/25 01:26:36;;;;;;;5.70;2.20;;;;;;;7.86;99.92;99206.63;5037083;28;20037;-67
2022/12/25 01:29:21;;;;;;;3.08;1.65;;;;;;;7.87;100.00;99199.63;5040724;28;20112;-67
2022/12/25 01:32:06;;;;;;;2.78;1.58;;;;;;;7.81;100.00;99197.31;5051728;28;20054;-68
2022/12/25 01:34:51;;;;;;;3.45;1.80;;;;;;;7.45;100.00;99197.31;5079065;28;20045;-67
2022/12/25 01:37:36;;;;;;;4.68;2.53;;;;;;;7.55;100.00;99204.66;5050856;28;20391;-67
2022/12/25 01:40:20;;;;;;;4.47;1.75;;;;;;;7.70;100.00;99195.25;5052088;28;20047;-67
2022/12/25 01:43:32;;;;;;;5.18;2.35;;;;;;;7.77;100.00;99196.63;5051506;28;20044;-67
2022/12/25 01:46:16;;;;;;;2.97;1.30;;;;;;;7.68;100.00;99203.16;5050631;28;20092;-67
2022/12/25 01:49:07;;;;;;;3.67;1.45;;;;;;;7.73;100.00;99201.16;5050742;28;20052;-67
2022/12/25 01:51:57;;;;;;;5.68;2.25;;;;;;;7.71;100.00;99196.94;5039725;28;20049;-67
2022/12/25 01:54:51;;;;;;;5.15;1.90;;;;;;;7.64;100.00;99194.63;5050188;28;20119;-67
2022/12/25 01:57:38;;;;;;;4.50;2.10;;;;;;;7.58;100.00;99192.34;5060749;28;20481;-67
2022/12/25 02:00:23;;;;;;;5.70;2.45;;;;;;;7.65;100.00;99198.09;5051486;28;20125;-67
2022/12/25 02:03:07;;;;;;;5.22;2.05;;;;;;;7.74;100.00;99202.84;5040623;28;20041;-67
2022/12/25 02:05:52;;;;;;;4.57;2.10;;;;;;;7.66;100.00;99199.78;5050123;28;20036;-67
2022/12/25 02:08:37;;;;;;;5.75;2.30;;;;;;;7.72;100.00;99207.28;5049780;28;20453;-67
2022/12/25 02:14:29;;;;;;;4.40;1.92;;;;;;;7.70;100.00;99211.75;5050717;28;20483;-67
2022/12/25 02:17:28;;;;;;;2.85;1.50;;;;;;;7.75;100.00;99220.16;5050786;28;20056;-67
2022/12/25 02:20:36;;;;;;;3.30;1.50;;;;;;;7.84;100.00;99228.47;5050684;28;20094;-67
2022/12/25 02:23:48;;;;;;;4.13;1.55;;;;;;;7.86;100.00;99240.53;5050940;28;20542;-68
2022/12/25 02:26:44;;;;;;;5.93;2.22;;;;;;;7.85;100.00;99241.44;5051185;28;20517;-67
2022/12/25 02:30:00;;;;;;;3.03;1.70;;;;;;;7.87;100.00;99250.03;5049960;28;20404;-68
2022/12/25 02:36:07;;;;;;;3.15;1.70;;;;;;;7.72;100.00;99241.19;5048280;28;20385;-66
2022/12/25 03:07:49;;;;;;;6.80;2.03;;;;;;;7.46;100.00;99250.31;4977092;28;20062;-67
2022/12/25 03:13:43;;;;;;;2.83;1.42;;;;;;;7.52;100.00;99243.00;4988310;28;20082;-67
2022/12/25 03:28:47;;;;;;;2.65;1.52;;;;;;;7.68;100.00;99250.09;5049826;28;20133;-67
2022/12/25 03:31:58;;;;;;;8.20;2.08;;;;;;;7.72;100.00;99253.41;5041706;28;20041;-68
2022/12/25 03:35:22;;;;;;;4.05;1.42;;;;;;;7.74;100.00;99257.63;5042449;28;20057;-68
2022/12/25 03:46:50;;;;;;;3.00;1.70;;;;;;;7.84;100.00;99257.16;5041996;28;20457;-67
2022/12/25 04:38:02;;;;;;;3.65;1.40;;;;;;;7.90;100.00;99256.84;5052895;28;20123;-68
2022/12/25 04:40:47;;;;;;;5.10;1.67;;;;;;;7.91;100.00;99258.56;5052826;28;20041;-68
2022/12/25 04:43:31;;;;;;;2.72;1.48;;;;;;;8.01;100.00;99256.34;5053262;28;20067;-68
2022/12/25 04:46:16;;;;;;;3.83;1.48;;;;;;;8.03;99.78;99258.88;5052475;28;20044;-67
2022/12/25 04:49:00;;;;;;;3.20;1.70;;;;;;;8.02;100.00;99255.41;5080451;28;20166;-68
2022/12/25 04:51:45;;;;;;;3.72;1.52;;;;;;;8.01;100.00;99258.94;5042016;28;20115;-67
2022/12/25 04:54:30;;;;;;;4.70;1.50;;;;;;;7.98;100.00;99262.53;5051524;28;20100;-68
2022/12/25 04:57:15;;;;;;;4.25;1.50;;;;;;;7.89;100.00;99256.03;5050261;28;20045;-68
2022/12/25 05:00:00;;;;;;;3.45;1.75;;;;;;;7.89;100.00;99268.22;5052832;28;20109;-67
2022/12/25 05:02:45;;;;;;;5.20;1.60;;;;;;;7.88;100.00;99269.16;5052706;28;20112;-67
2022/12/25 05:05:30;;;;;;;2.85;1.10;;;;;;;7.94;100.00;99278.41;5052201;28;20694;-67
2022/12/25 05:08:15;;;;;;;4.22;1.40;;;;;;;7.98;100.00;99277.38;5052387;28;20124;-67
2022/12/25 05:11:04;;;;;;;2.83;1.35;;;;;;;7.98;99.76;99270.38;5049787;28;20045;-68
2022/12/25 05:13:49;;;;;;;7.38;1.52;;;;;;;7.99;99.84;99266.00;5051170;28;20041;-67
2022/12/25 05:16:34;;;;;;;3.65;1.25;;;;;;;8.03;99.69;99266.69;5052529;28;20082;-67
2022/12/25 05:19:18;;;;;;;3.03;1.20;;;;;;;8.04;99.58;99264.00;5050793;28;20045;-67
2022/12/25 05:22:03;;;;;;;3.60;1.33;;;;;;;8.06;99.17;99267.38;5051984;28;20053;-69
2022/12/25 05:24:48;;;;;;;4.53;1.40;;;;;;;7.97;99.28;99254.78;5050623;28;20480;-67
2022/12/25 05:27:33;;;;;;;3.90;1.30;;;;;;;7.98;99.80;99249.50;5040405;28;20055;-67
2022/12/25 05:30:18;;;;;;;3.72;1.13;;;;;;;7.96;99.81;99256.56;5051829;28;20048;-67
2022/12/25 05:33:03;;;;;;;4.40;1.55;;;;;;;7.98;100.00;99252.09;5051311;28;20056;-67
2022/12/25 05:35:47;;;;;;;3.97;1.58;;;;;;;8.00;99.55;99252.03;5041295;28;20091;-67
2022/12/25 05:38:33;;;;;;;4.15;1.20;;;;;;;8.06;99.43;99262.16;5051906;28;20067;-67
2022/12/25 05:41:17;;;;;;;3.53;1.10;;;;;;;8.08;98.06;99254.28;5050421;28;20049;-67
2022/12/25 05:44:02;;;;;;;6.47;1.27;;;;;;;8.16;98.72;99253.88;5050462;28;20481;-67
2022/12/25 05:46:46;;;;;;;5.75;1.30;;;;;;;8.11;97.60;99256.72;5039105;28;20045;-67
2022/12/25 05:49:31;;;;;;;5.03;1.30;;;;;;;8.06;98.12;99261.31;5051598;28;20485;-67
2022/12/25 05:52:16;;;;;;;3.55;1.15;;;;;;;8.01;98.37;99258.94;5030692;28;20119;-67
2022/12/25 05:55:01;;;;;;;2.75;0.98;;;;;;;8.03;98.63;99266.69;5046443;28;20408;-67
2022/12/25 05:57:45;;;;;;;4.05;1.10;;;;;;;8.03;98.44;99257.09;5051693;28;20041;-67
2022/12/25 06:00:31;;;;;;;2.55;1.10;;;;;;;8.05;97.98;99254.41;5050116;28;20048;-67
2022/12/25 06:03:15;;;;;;;4.40;1.08;;;;;;;8.05;98.57;99260.47;5051484;28;20385;-67
2022/12/25 06:06:02;;;;;;;4.18;1.38;;;;;;;8.03;99.03;99256.25;5051388;28;20498;-67
2022/12/25 06:08:46;;;;;;;2.45;0.93;;;;;;;8.01;98.35;99258.94;5051251;28;20048;-69
2022/12/25 06:11:31;;;;;;;3.67;1.30;;;;;;;8.01;98.62;99258.94;5051233;28;20135;-68
2022/12/25 06:14:15;;;;;;;4.53;1.50;;;;;;;7.98;98.23;99259.94;5051013;28;20061;-67
2022/12/25 06:17:00;;;;;;;2.88;1.38;;;;;;;7.89;99.09;99266.47;5050138;28;20045;-67
2022/12/25 06:19:45;;;;;;;3.60;1.10;;;;;;;7.85;99.87;99282.34;5050189;28;20045;-67
2022/12/25 06:22:30;;;;;;;2.40;0.90;;;;;;;7.82;100.00;99285.06;5051472;28;20039;-67
2022/12/25 06:25:15;;;;;;;2.47;1.10;;;;;;;7.81;100.00;99288.63;5050966;28;20055;-67
2022/12/25 06:28:00;;;;;;;2.95;1.13;;;;;;;7.82;100.00;99292.91;5051322;28;20041;-68
2022/12/25 06:30:45;;;;;;;4.32;1.33;;;;;;;7.85;100.00;99291.00;5078495;28;20048;-69
2022/12/25 06:33:30;;;;;;;2.97;1.20;;;;;;;7.84;100.00;99291.06;5050044;28;20215;-68
2022/12/25 06:36:18;;;;;;;3.45;1.20;;;;;;;7.87;100.00;99288.31;5050970;28;20415;-68
2022/12/25 06:39:03;;;;;;;3.15;0.98;;;;;;;7.92;100.00;99301.13;5050097;28;20041;-68
2022/12/25 06:41:48;;;;;;;4.43;1.30;;;;;;;7.87;100.00;99304.81;5050544;28;20106;-68
2022/12/25 06:44:33;;;;;;;3.20;1.30;;;;;;;7.82;100.00;99306.81;5049544;28;20464;-68
2022/12/25 06:47:17;;;;;;;3.00;1.58;;;;;;;7.71;100.00;99301.25;5051018;28;20044;-68
2022/12/25 06:50:04;;;;;;;3.33;1.50;;;;;;;7.61;100.00;99304.31;5038004;28;20033;-68
2022/12/25 06:52:49;;;;;;;4.53;1.27;;;;;;;7.63;100.00;99309.47;5049517;28;20487;-68
2022/12/25 06:55:36;;;;;;;2.92;1.13;;;;;;;7.65;100.00;99318.06;5050353;28;20059;-68
2022/12/25 06:58:21;;;;;;;2.55;1.20;;;;;;;7.90;100.00;99327.28;5035866;28;20049;-68
2022/12/25 07:01:13;;;;;;;3.58;1.33;;;;;;;8.05;100.00;99327.47;5029469;28;20095;-68
2022/12/25 07:04:05;;;;;;;5.68;1.60;;;;;;;8.05;100.00;99332.69;5047018;28;20029;-69
2022/12/25 07:06:49;;;;;;;2.30;1.10;;;;;;;8.38;99.39;99337.16;5048836;28;20439;-69
2022/12/25 07:09:35;;;;;;;4.65;1.58;;;;;;;9.03;95.44;99347.84;5049220;28;20048;-68
2022/12/25 07:12:22;;;;;;;5.18;2.10;;;;;;;9.46;92.02;99342.94;5049706;28;20075;-69
2022/12/25 07:15:07;;;;;;;5.10;1.70;;;;;;;9.12;92.48;99355.22;5035290;28;20056;-68
2022/12/25 07:17:52;;;;;;;3.75;1.27;;;;;;;8.55;94.37;99351.16;5036990;28;20041;-69
2022/12/25 07:20:37;;;;;;;5.47;2.38;;;;;;;8.21;98.07;99351.88;5048427;28;20045;-68
2022/12/25 07:23:22;;;;;;;3.65;1.20;;;;;;;8.36;99.37;99355.50;5050330;28;20542;-69
2022/12/25 07:26:09;;;;;;;10.20;5.13;;;;;;;8.51;97.32;99358.28;5039126;28;20068;-69
2022/12/25 07:28:55;;;;;;;3.88;1.92;;;;;;;7.85;100.00;99358.00;5049591;28;20049;-68
2022/12/25 07:31:39;;;;;;;6.80;2.08;;;;;;;7.88;100.00;99361.28;5049629;28;20120;-68
2022/12/25 07:34:24;;;;;;;5.70;2.08;;;;;;;8.00;100.00;99354.63;5050131;28;20234;-67
2022/12/25 07:37:09;;;;;;;4.97;1.60;;;;;;;8.17;100.00;99363.41;5036852;28;20437;-68
2022/12/25 07:39:54;;;;;;;6.40;2.60;;;;;;;8.34;100.00;99370.41;5049621;28;20855;-68
2022/12/25 07:42:38;;;;;;;3.33;1.58;;;;;;;8.28;100.00;99375.94;5034892;28;20458;-68
2022/12/25 07:45:23;;;;;;;4.70;1.40;;;;;;;8.28;99.46;99375.06;5024628;28;20391;-68
2022/12/25 07:48:08;;;;;;;4.30;1.77;;;;;;;8.33;99.36;99381.78;5035560;28;20662;-68
2022/12/25 07:51:00;;;;;;;3.20;1.73;;;;;;;8.32;99.57;99377.50;5049379;28;20065;-68
2022/12/25 07:53:45;;;;;;;4.55;1.55;;;;;;;8.21;99.01;99379.78;5049873;28;20049;-69
2022/12/25 07:56:30;;;;;;;4.93;1.95;;;;;;;7.86;100.00;99367.50;5037436;28;20152;-68
2022/12/25 07:59:14;;;;;;;5.38;1.95;;;;;;;7.85;100.00;99368.44;5048135;28;20037;-69
2022/12/25 08:02:00;;;;;;;4.57;2.22;;;;;;;7.87;100.00;99366.56;5034685;28;20056;-69
2022/12/25 08:04:45;;;;;;;5.15;2.28;;;;;;;7.96;100.00;99360.09;5052439;28;20041;-69
2022/12/25 08:07:30;;;;;;;3.72;1.55;;;;;;;8.04;98.39;99367.53;5049541;28;20033;-68
2022/12/25 08:10:14;;;;;;;4.40;1.92;;;;;;;8.23;99.08;99367.47;5048337;28;20049;-68
2022/12/25 08:12:59;;;;;;;5.50;2.63;;;;;;;8.68;98.16;99377.50;5037079;28;20523;-69
2022/12/25 08:15:44;;;;;;;4.88;1.75;;;;;;;8.94;95.36;99381.41;5048925;28;20434;-69
2022/12/25 08:18:30;;;;;;;4.70;2.20;;;;;;;8.97;95.52;99377.78;5076973;28;20407;-70
2022/12/25 08:21:14;;;;;;;7.15;2.80;;;;;;;9.29;94.01;99383.06;5038777;28;20389;-69
2022/12/25 08:24:01;;;;;;;5.80;2.50;;;;;;;9.90;90.55;99384.19;5049620;28;20108;-70
2022/12/25 08:26:46;;;;;;;5.47;2.20;;;;;;;10.17;86.92;99394.00;5048894;28;20045;-71
2022/12/25 08:29:32;;;;;;;5.90;2.22;;;;;;;10.31;86.42;99388.84;5048738;28;20124;-70
2022/12/25 08:32:16;;;;;;;6.13;2.42;;;;;;;10.47;83.59;99388.84;5037090;28;20041;-70
2022/12/25 08:35:01;;;;;;;6.90;2.22;;;;;;;10.81;83.41;99399.09;5053005;28;20037;-70
2022/12/25 08:37:45;;;;;;;5.47;2.75;;;;;;;11.04;81.01;99396.03;5080386;28;20047;-70
2022/12/25 08:40:31;;;;;;;5.25;2.45;;;;;;;11.44;79.20;99395.38;5052143;28;20514;-70
2022/12/25 08:43:15;;;;;;;2.85;1.42;;;;;;;12.08;77.01;99391.38;5037530;28;20044;-70
2022/12/25 08:46:01;;;;;;;4.60;1.98;;;;;;;12.00;75.57;99393.63;5037498;28;20545;-69
2022/12/25 08:48:47;;;;;;;4.25;2.08;;;;;;;12.23;74.73;99401.81;5052032;28;20047;-70
2022/12/25 08:51:33;;;;;;;4.60;1.60;;;;;;;13.06;71.69;99394.56;5039080;28;20036;-69
2022/12/25 08:54:17;;;;;;;3.35;1.92;;;;;;;13.03;70.14;99397.44;5051397;28;20037;-70
2022/12/25 08:57:02;;;;;;;5.93;2.72;;;;;;;12.37;73.25;99393.88;5044614;28;20049;-69
2022/12/25 08:59:47;;;;;;;5.53;2.20;;;;;;;12.90;72.71;99403.53;5052630;28;20040;-69
2022/12/25 09:02:32;;;;;;;4.43;2.00;;;;;;;13.13;72.27;99390.59;5051608;28;20044;-70
2022/12/25 09:05:16;;;;;;;5.45;2.15;;;;;;;13.54;69.42;99399.19;5052308;28;20126;-70
2022/12/25 09:08:01;;;;;;;5.22;2.70;;;;;;;13.64;68.87;99391.47;5051797;28;20094;-70
2022/12/25 09:10:47;;;;;;;5.45;2.42;;;;;;;13.44;68.98;99395.50;5050630;28;20053;-70
2022/12/25 09:13:32;;;;;;;6.70;2.50;;;;;;;13.37;70.39;99396.84;5051399;28;20048;-70
2022/12/25 09:16:20;;;;;;;3.67;1.98;;;;;;;13.79;69.91;99402.69;5052272;28;20041;-71
2022/12/25 09:19:05;;;;;;;3.92;1.55;;;;;;;14.10;68.12;99393.53;5050823;28;20047;-71
2022/12/25 09:21:49;;;;;;;7.13;2.35;;;;;;;13.82;66.47;99390.25;5050778;28;20063;-71
2022/12/25 09:24:38;;;;;;;4.57;2.13;;;;;;;13.92;66.22;99388.66;5078984;28;20052;-71
2022/12/25 09:27:22;;;;;;;4.35;2.10;;;;;;;13.99;67.30;99383.75;5079287;28;20464;-72
2022/12/25 09:30:07;;;;;;;4.55;1.77;;;;;;;14.23;65.79;99380.28;5051683;28;20521;-71
2022/12/25 09:32:52;;;;;;;5.35;1.92;;;;;;;15.23;65.03;99378.91;5051963;28;20040;-72
2022/12/25 09:35:37;;;;;;;3.60;1.88;;;;;;;15.76;62.03;99381.84;5032608;28;20098;-73
2022/12/25 09:38:22;;;;;;;3.60;1.60;;;;;;;15.99;61.12;99368.59;5044045;28;20041;-73
2022/12/25 09:41:19;;;;;;;3.85;2.00;;;;;;;16.11;59.52;99374.66;5046669;28;20045;-71
2022/12/25 09:44:17;;;;;;;3.00;1.85;;;;;;;16.40;62.06;99379.38;5051511;28;20439;-73
2022/12/25 09:47:07;;;;;;;4.50;2.03;;;;;;;15.51;59.79;99384.66;5044870;28;20044;-72
2022/12/25 09:50:03;;;;;;;3.92;2.38;;;;;;;15.26;61.63;99385.75;5050267;28;20408;-72
2022/12/25 09:52:56;;;;;;;4.80;2.42;;;;;;;14.93;61.65;99384.78;5051486;28;20098;-71
2022/12/25 09:56:03;;;;;;;6.57;2.70;;;;;;;15.38;61.47;99392.72;5051207;28;20400;-71
2022/12/25 09:58:48;;;;;;;6.72;3.17;;;;;;;15.52;63.29;99394.25;5050841;28;20091;-71
2022/12/25 10:01:55;;;;;;;6.47;2.92;;;;;;;15.88;61.25;99394.06;5041228;28;20397;-72
2022/12/25 10:05:15;;;;;;;6.07;3.85;;;;;;;15.53;63.53;99400.38;5029067;28;20064;-72
2022/12/25 10:08:46;;;;;;;6.80;2.80;;;;;;;14.91;61.41;99390.19;4948936;28;20101;-72
2022/12/25 10:11:36;;;;;;;8.20;4.45;;;;;;;16.32;59.83;99387.91;4950597;29;20084;-72
2022/12/25 10:14:23;;;;;;;9.15;3.20;;;;;;;15.72;61.49;99377.75;4950433;29;20051;-72
2022/12/25 10:17:42;;;;;;;7.97;3.60;;;;;;;15.94;59.91;99391.88;4964256;28;20716;-72
2022/12/25 10:20:36;;;;;;;6.07;3.33;;;;;;;16.04;61.96;99377.00;4950641;29;20130;-73
2022/12/25 10:23:31;;;;;;;6.35;2.97;;;;;;;16.03;58.35;99375.31;4950862;29;20170;-73
2022/12/25 10:26:21;;;;;;;7.18;2.90;;;;;;;15.58;61.60;99369.16;4940922;29;20575;-72
2022/12/25 10:29:18;;;;;;;5.53;2.95;;;;;;;15.77;59.23;99365.03;4952709;28;20039;-73
2022/12/25 10:32:03;;;;;;;8.07;2.90;;;;;;;15.91;59.05;99368.38;4954622;28;20508;-72
2022/12/25 10:34:48;;;;;;;7.18;3.25;;;;;;;15.95;60.19;99373.25;4954945;28;20059;-73
2022/12/25 10:37:33;;;;;;;6.20;2.80;;;;;;;15.24;64.52;99370.03;4955466;28;20051;-73
2022/12/25 10:40:35;;;;;;;5.70;3.08;;;;;;;15.07;61.61;99360.81;4989495;28;20042;-75
2022/12/25 10:43:25;;;;;;;4.63;2.47;;;;;;;15.47;59.67;99350.72;4995723;28;20559;-72
2022/12/25 10:46:12;;;;;;;5.07;2.95;;;;;;;15.22;64.19;99356.13;5008145;28;20448;-73
2022/12/25 10:49:01;;;;;;;8.73;3.78;;;;;;;14.60;63.74;99356.44;5050795;28;20052;-72
2022/12/25 10:51:46;;;;;;;5.70;2.47;;;;;;;13.90;70.03;99349.25;5038832;28;20049;-72
2022/12/25 10:54:35;;;;;;;6.13;2.50;;;;;;;13.43;65.38;99356.97;5050354;28;20049;-73
2022/12/25 10:57:23;;;;;;;5.30;2.40;;;;;;;12.97;68.48;99355.78;5050050;28;20497;-72
2022/12/25 11:00:22;;;;;;;5.57;2.40;;;;;;;12.85;67.93;99360.94;5049707;28;20041;-72
2022/12/25 11:03:21;;;;;;;6.47;2.80;;;;;;;12.99;69.98;99359.16;5029759;28;20183;-70
2022/12/25 11:06:19;;;;;;;6.53;2.92;;;;;;;12.94;70.32;99354.22;5038019;28;20350;-69
2022/12/25 11:09:15;;;;;;;8.18;2.85;;;;;;;12.30;70.14;99355.84;5049274;28;20063;-70
2022/12/25 11:12:00;;;;;;;6.72;2.53;;;;;;;12.39;69.80;99342.09;5050008;28;20046;-69
2022/12/25 11:14:57;;;;;;;4.63;2.38;;;;;;;12.61;72.51;99353.78;5050645;28;20131;-69
2022/12/25 11:17:48;;;;;;;7.50;2.83;;;;;;;12.69;71.69;99350.63;5049009;28;20056;-68
2022/12/25 11:20:32;;;;;;;5.63;3.35;;;;;;;12.63;68.80;99348.41;5049932;28;20037;-69
2022/12/25 11:23:19;;;;;;;5.60;2.83;;;;;;;12.50;69.07;99327.38;5050316;28;20045;-69
2022/12/25 11:26:07;;;;;;;4.97;3.00;;;;;;;12.66;71.03;99341.19;5039319;28;20084;-69
2022/12/25 11:28:53;;;;;;;6.88;3.25;;;;;;;13.56;65.33;99338.53;5049892;28;20045;-70
2022/12/25 11:31:39;;;;;;;9.32;4.10;;;;;;;13.70;64.69;99331.41;5050241;28;20040;-70
2022/12/25 11:34:39;;;;;;;7.28;3.65;;;;;;;13.67;63.92;99332.50;5050532;28;20057;-71
2022/12/25 11:37:39;;;;;;;8.02;3.92;;;;;;;14.22;62.27;99328.50;5033158;28;20042;-71
2022/12/25 11:40:28;;;;;;;7.57;3.75;;;;;;;14.14;64.17;99321.19;5038068;28;20547;-72
2022/12/25 11:43:21;;;;;;;6.55;3.28;;;;;;;14.75;63.36;99314.00;5049560;28;20546;-73
2022/12/25 11:46:43;;;;;;;5.03;2.55;;;;;;;15.11;61.94;99306.81;5056091;28;20042;-73
2022/12/25 11:50:00;;;;;;;5.65;3.25;;;;;;;15.35;59.46;99303.22;5035225;28;20049;-73
2022/12/25 11:52:51;;;;;;;5.97;2.83;;;;;;;15.41;58.30;99295.75;5062404;28;20037;-72
2022/12/25 11:55:42;;;;;;;6.05;3.25;;;;;;;14.75;59.82;99287.63;5049598;28;20061;-73
2022/12/25 11:58:32;;;;;;;6.22;3.13;;;;;;;14.73;60.69;99290.41;5049944;28;20041;-73
2022/12/25 12:01:43;;;;;;;6.05;2.63;;;;;;;15.45;59.32;99291.91;5036656;28;20044;-73
2022/12/25 12:04:35;;;;;;;3.78;2.33;;;;;;;16.01;56.09;99298.81;5037330;28;20064;-73
2022/12/25 12:07:28;;;;;;;6.57;3.05;;;;;;;15.66;59.60;99302.53;5058377;28;20073;-72
2022/12/25 12:10:21;;;;;;;5.68;3.00;;;;;;;15.98;56.99;99298.22;5053904;28;20144;-71
2022/12/25 12:13:20;;;;;;;4.55;2.50;;;;;;;15.96;56.96;99295.66;5042016;28;20098;-73
2022/12/25 12:16:07;;;;;;;4.50;2.55;;;;;;;15.82;59.35;99291.53;5053329;28;20049;-73
2022/12/25 12:18:52;;;;;;;8.43;2.83;;;;;;;15.60;59.22;99293.28;5052447;28;20073;-73
2022/12/25 12:21:38;;;;;;;6.97;2.53;;;;;;;16.02;56.64;99283.81;5053934;28;20128;-73
2022/12/25 12:24:28;;;;;;;5.88;2.58;;;;;;;16.28;58.29;99285.22;5040786;28;20456;-73
2022/12/25 12:27:39;;;;;;;6.53;2.67;;;;;;;16.64;55.11;99285.69;5059062;28;20044;-74
2022/12/25 12:30:31;;;;;;;5.32;2.58;;;;;;;15.93;56.81;99277.44;5052033;28;20044;-73
2022/12/25 12:33:19;;;;;;;6.00;2.80;;;;;;;15.57;59.10;99268.97;5052280;28;20060;-72
2022/12/25 12:36:05;;;;;;;4.10;2.67;;;;;;;16.01;57.43;99275.03;5046563;28;20338;-73
2022/12/25 12:38:50;;;;;;;5.25;2.50;;;;;;;16.01;59.55;99284.78;5054502;28;20051;-72
2022/12/25 12:41:45;;;;;;;5.45;2.90;;;;;;;16.29;56.24;99279.78;5052432;28;20048;-73
2022/12/25 12:44:33;;;;;;;5.25;2.78;;;;;;;16.09;60.48;99274.38;5052695;28;20041;-73
2022/12/25 12:47:39;;;;;;;5.60;2.90;;;;;;;16.45;54.29;99271.38;5052884;28;20103;-73
2022/12/25 12:50:29;;;;;;;6.45;2.90;;;;;;;16.32;57.22;99271.59;5043814;28;20124;-73
2022/12/25 12:53:23;;;;;;;5.47;2.90;;;;;;;15.99;57.79;99271.66;5039576;28;20045;-71
2022/12/25 12:56:10;;;;;;;6.07;2.97;;;;;;;16.12;58.50;99271.47;5052580;28;20037;-72
2022/12/25 12:58:55;;;;;;;5.00;2.97;;;;;;;15.85;59.29;99266.66;5079891;28;20055;-73
2022/12/25 13:01:49;;;;;;;5.22;2.80;;;;;;;15.84;59.78;99272.91;5053091;28;20064;-73
2022/12/25 13:04:47;;;;;;;5.35;2.50;;;;;;;16.15;60.01;99262.47;5051382;28;20048;-73
2022/12/25 13:07:47;;;;;;;7.50;3.10;;;;;;;16.22;57.19;99266.25;5052395;28;20076;-73
2022/12/25 13:10:33;;;;;;;5.40;2.60;;;;;;;16.10;58.72;99259.38;5052283;28;20064;-72
2022/12/25 13:13:23;;;;;;;7.00;3.40;;;;;;;15.44;59.71;99248.00;5052270;28;20045;-72
2022/12/25 13:16:36;;;;;;;8.23;3.38;;;;;;;15.02;60.83;99245.09;5051120;28;20112;-73
2022/12/25 13:19:23;;;;;;;6.88;3.38;;;;;;;15.27;62.35;99251.03;5051041;28;20037;-72
2022/12/25 13:22:23;;;;;;;6.40;3.50;;;;;;;15.96;59.15;99250.75;5036976;28;20060;-72
2022/12/25 13:25:18;;;;;;;6.30;3.20;;;;;;;15.87;59.83;99249.75;5050096;28;20476;-73
2022/12/25 13:28:03;;;;;;;7.15;3.67;;;;;;;15.30;61.69;99234.13;5057100;28;20045;-73
2022/12/25 13:30:48;;;;;;;7.50;3.25;;;;;;;15.82;63.60;99236.06;5039476;28;20170;-72
2022/12/25 13:33:33;;;;;;;6.45;3.15;;;;;;;15.92;61.64;99235.28;5036999;28;20120;-73
2022/12/25 13:36:18;;;;;;;9.80;3.40;;;;;;;15.48;60.80;99231.78;5045832;28;20055;-72
2022/12/25 13:39:07;;;;;;;6.68;3.13;;;;;;;14.97;63.57;99223.50;5042172;28;20049;-73
2022/12/25 13:42:05;;;;;;;5.50;3.28;;;;;;;14.48;66.17;99226.38;5050763;28;20515;-73
2022/12/25 13:44:54;;;;;;;7.20;3.25;;;;;;;14.84;65.74;99215.72;5036292;28;20505;-71
2022/12/25 13:47:44;;;;;;;7.10;3.35;;;;;;;14.73;68.06;99219.19;5051195;28;20060;-72
2022/12/25 13:50:31;;;;;;;6.90;3.50;;;;;;;13.88;70.42;99222.13;5036357;28;20121;-73
2022/12/25 13:53:16;;;;;;;7.15;3.22;;;;;;;14.21;68.30;99226.72;5050935;28;20544;-73
2022/12/25 13:56:03;;;;;;;6.88;3.33;;;;;;;13.50;71.86;99220.50;5050321;28;20159;-74
2022/12/25 13:58:47;;;;;;;7.03;4.00;;;;;;;12.53;77.04;99229.94;5051832;28;20425;-71
2022/12/25 14:01:32;;;;;;;7.72;4.00;;;;;;;12.07;77.69;99224.25;5040235;28;20037;-71
2022/12/25 14:04:22;;;;;;;8.02;4.97;;;;;;;12.05;78.21;99231.38;5050532;28;20041;-69
2022/12/25 14:07:10;;;;;;;10.45;4.80;;;;;;;11.03;83.18;99216.06;5051181;28;20040;-69
2022/12/25 14:10:01;;;;;;;8.90;4.53;;;;;;;10.76;88.34;99224.72;5051331;28;20049;-70
2022/12/25 14:12:48;;;;;;;;;;;;;;;10.61;87.19;99232.56;5063042;28;20044;-69
2022/12/25 14:15:35;;;;;;;9.52;4.22;;;;;;;10.87;88.06;99237.97;5050766;28;19943;-69
2022/12/25 14:18:22;;;;;;;10.07;3.90;;;;;;;10.56;87.13;99238.09;5051125;28;20378;-69
2022/12/25 14:21:11;;;;;;;7.07;3.22;;;;;;;10.32;92.87;99235.16;5038734;28;20033;-69
2022/12/25 14:23:56;;;;;;;7.55;3.80;;;;;;;10.40;90.78;99245.16;5050626;28;20059;-68
2022/12/25 14:26:41;;;;;;;6.45;4.35;;;;;;;9.98;93.11;99236.25;5049996;28;20052;-69
2022/12/25 14:29:33;;;;;;;8.55;4.43;;;;;;;9.82;94.81;99235.44;5050531;28;20044;-69
2022/12/25 14:32:21;;;;;;;10.68;5.50;;;;;;;9.59;94.52;99233.22;5050781;28;20226;-68
2022/12/25 14:35:08;;;;;;;9.00;4.88;;;;;;;9.77;97.03;99230.50;5049237;28;20119;-69
2022/12/25 14:37:59;;;;;;;10.05;5.85;;;;;;;9.08;98.47;99242.13;5077578;28;20044;-68
2022/12/25 14:40:44;;;;;;;;;;;;;;;8.99;100.00;99242.63;5049745;28;20385;-68
2022/12/25 14:43:29;;;;;;;10.60;5.30;;;;;;;9.05;100.00;99246.69;5049194;28;19932;-68
2022/12/25 14:46:22;;;;;;;9.98;5.80;;;;;;;8.82;100.00;99233.94;5050095;28;20049;-68
2022/12/25 14:49:23;;;;;;;11.35;5.05;;;;;;;8.86;100.00;99239.84;5050069;28;20447;-69
2022/12/25 14:52:16;;;;;;;11.40;5.33;;;;;;;8.82;100.00;99225.25;5049708;28;20041;-68
2022/12/25 14:55:14;;;;;;;8.70;4.50;;;;;;;8.67;100.00;99219.94;5050521;28;20045;-68
2022/12/25 14:58:05;;;;;;;10.75;5.18;;;;;;;8.42;100.00;99225.59;5050331;28;20496;-68
2022/12/25 15:00:55;;;;;;;10.35;5.55;;;;;;;8.13;100.00;99229.63;5049123;28;20105;-69
2022/12/25 15:03:40;;;;;;;9.43;5.18;;;;;;;8.07;100.00;99227.31;5048937;28;20045;-69
2022/12/25 15:06:28;;;;;;;9.35;5.10;;;;;;;7.91;100.00;99229.88;5051960;28;20072;-67
2022/12/25 15:09:15;;;;;;;9.48;5.32;;;;;;;7.90;100.00;99238.59;5037631;28;20093;-68
2022/12/25 15:12:00;;;;;;;8.82;5.20;;;;;;;8.07;100.00;99235.16;5035486;28;20045;-68